This is the latest recevied weather packets stored in our database for station/object W8CWV-13. If no packets are shown the sender has not sent any weather packets the latest 10 day(s).
| Time | Temp. | Humidity | Pressure | Rain* | Wind** | Luminosity | Snow |
|---|---|---|---|---|---|---|---|
| 1777665357 | 23.33° C | 100% | 1018.2 hPa | - | - | - | - |
| 1777664787 | 23.89° C | 100% | 1018.4 hPa | - | - | - | - |
| 1777664213 | 24.44° C | 100% | 1018.4 hPa | - | - | - | - |
| 1777663636 | 23.89° C | 100% | 1018.6 hPa | - | - | - | - |
| 1777663059 | 23.33° C | 100% | 1018.6 hPa | - | - | - | - |
| 1777662491 | 22.78° C | 100% | 1019 hPa | - | - | - | - |
| 1777661912 | 23.33° C | 100% | 1019 hPa | - | - | - | - |
| 1777661336 | 23.33° C | 100% | 1019.2 hPa | - | - | - | - |
| 1777660766 | 23.89° C | 100% | 1019.4 hPa | - | - | - | - |
| 1777660191 | 23.33° C | 100% | 1019.7 hPa | - | - | - | - |
| 1777659612 | 22.78° C | 100% | 1019.8 hPa | - | - | - | - |
| 1777659036 | 21.67° C | 100% | 1020.1 hPa | - | - | - | - |
| 1777658462 | 22.78° C | 100% | 1020.3 hPa | - | - | - | - |
| 1777657885 | 21.67° C | 100% | 1020.4 hPa | - | - | - | - |
| 1777657313 | 21.67° C | 100% | 1020.6 hPa | - | - | - | - |
| 1777656733 | 22.22° C | 100% | 1020.8 hPa | - | - | - | - |
| 1777656161 | 20.56° C | 100% | 1021 hPa | - | - | - | - |
| 1777655585 | 21.11° C | 100% | 1021.2 hPa | - | - | - | - |
| 1777655016 | 22.22° C | 100% | 1021.1 hPa | - | - | - | - |
| 1777654445 | 22.78° C | 100% | 1021.2 hPa | - | - | - | - |
| 1777653868 | 22.22° C | 100% | 1021.2 hPa | - | - | - | - |
| 1777653292 | 19.44° C | 100% | 1021.7 hPa | - | - | - | - |
| 1777652721 | 21.11° C | 100% | 1021.7 hPa | - | - | - | - |
| 1777652151 | 21.67° C | 100% | 1021.6 hPa | - | - | - | - |
| 1777651582 | 21.67° C | 100% | 1021.6 hPa | - | - | - | - |
* Rain since midnight (hover to see other rain measurements)
** Current wind speed in m/s (hover to see current wind gust speed)